gp della lettonia

MXGP. Herlings e Prado si aggiudicano le qualifiche del GP della Lettonia

- La giornata iniziale della settima tappa iridata si è aperta all’insegna dell’olandese che si è aggiudicato la qualifica MXGP con 50 secondi su Desalle, mentre Cairoli cade e da oltre metà gruppo termina 3°; a Prado la MX2
MXGP. Herlings e Prado si aggiudicano le qualifiche del GP della Lettonia

Toccata e fuga nell’apertura del GP della Lettonia che ha visto il leader Jeffrey Herlings partire al comando e fare gara a se con un margine imbarazzante dopo aver preso il largo fin dalle prime battute. Prova impegnativa invece per Tony Cairoli, caduto alla partenza assieme a Gautier Paulin, Arminas Jasikonis ed altri piloti, che si è rimboccato le maniche e da 24° ha rimontato addirittura sino al 3° posto alle spalle di Clement Desalle rimasto al posto d’onore per tutta la manche.

4° Romain Febvre davanti al compagno di squadra Jeremy Van Horebeek, mentre l’ufficiale HRC Tim Gajser non è riuscito a fare meglio di 7°; è andata però peggio al suo nuovo compagno di scuderia australiano Todd Waters, venuto appositamente dagli Stati Uniti dove ricopriva il ruolo di collaudatore Honda per sostituire Brian Bogers visti i tempi lunghi previsti per il recupero dell’olandese, protagonista di una pesante caduta che gli ha procurato la sospetta frattura della clavicola; 13° Alex Lupino.

Anche il favorito pilota di casa Pauls Jonass è caduto alla partenza, lasciando così la vittoria MX2 al sempre più consistente Jorge Prado, mentre il leader lettone ha recuperato sino a 12°. 2ª piazza per il britannico Ben Watson, che ha preceduto Hunter Lawrence e Conrad Mewse, mentre Michele Cervellin dalle retrovie è rinvenuto sino a 15° chiudendo davanti a Simone Furlotti, Samuele Bernardini e Morgan Lesiardo.

La prima manche EMX250 ha registrato l’affermazione del francese del team Honda Redmoto Assomotor Mathys Boisrame e la 3ª posizione di Gianluca Facchetti che era partito al posto d’onore, mentre la 125 ha visto primo degli azzurri il rientrante Mattia Guadagnini terminato 7°.

 

 

CLASSIFICHE

MXGP - Qualifying Race - Classification
Pos Nr Rider Nat. Fed. Bike Time laps Diff. First Diff. Prev. Bestlaptime in lap Speed
1 84 Herlings, Jeffrey NED KNMV KTM 25:15.963 13 0:00.000 0:00.000 1:51.031 1 50.5
2 25 Desalle, Clement BEL FMB Kawasaki 26:06.313 13 0:50.350 0:50.350 1:56.272 4 48.3
3 222 Cairoli, Antonio ITA FMI KTM 26:08.918 13 0:52.955 0:02.605 1:55.023 9 48.8
4 461 Febvre, Romain FRA FFM Yamaha 26:09.930 13 0:53.967 0:01.012 1:55.402 4 48.6
5 89 Van Horebeek, Jeremy BEL FMB Yamaha 26:12.395 13 0:56.432 0:02.465 1:56.274 8 48.2
6 259 Coldenhoff, Glenn NED KNMV KTM 26:15.955 13 0:59.992 0:03.560 1:56.256 9 48.3
7 243 Gajser, Tim SLO AMZS Honda 26:17.787 13 1:01.824 0:01.832 1:56.173 9 48.3
8 91 Seewer, Jeremy SUI FMS Yamaha 26:18.183 13 1:02.220 0:00.396 1:57.135 3 47.9
9 21 Paulin, Gautier FRA MCM Husqvarna 26:19.182 13 1:03.219 0:00.999 1:55.735 10 48.5
10 12 Nagl, Maximilian GER DMSB TM 26:25.720 13 1:09.757 0:06.538 1:56.766 9 48
11 99 Anstie, Max GBR ACU Husqvarna 26:42.102 13 1:26.139 0:16.382 1:56.868 9 48
12 27 Jasikonis, Arminas LTU LMSF Honda 26:47.245 13 1:31.282 0:05.143 1:57.489 5 47.8
13 77 Lupino, Alessandro ITA FMI Kawasaki 26:52.328 13 1:36.365 0:05.083 1:58.110 5 47.5
14 6 Paturel, Benoit FRA FFM KTM 26:58.309 13 1:42.346 0:05.981 1:58.409 2 47.4
15 152 Petrov, Petar BUL BMF Honda 27:01.203 13 1:45.240 0:02.894 1:58.488 5 47.3
16 141 Desprey, Maxime FRA FFM Kawasaki 27:04.502 13 1:48.539 0:03.299 1:57.796 3 47.6
17 17 Butron, Jose ESP RFME KTM 27:05.263 13 1:49.300 0:00.761 1:59.459 11 47
18 777 Bobryshev, Evgeny RUS MFR Suzuki 27:07.969 13 1:52.006 0:02.706 1:56.823 5 48
19 151 Kullas, Harri EST EMF Husqvarna 27:13.589 13 1:57.626 0:05.620 1:59.750 5 46.8
20 128 Monticelli, Ivo ITA FMI Yamaha 27:15.138 13 1:59.175 0:01.549 1:58.200 2 47.5

 

MX2 - Qualifying Race - Classification
Pos Nr Rider Nat. Fed. Bike Time laps Diff. First Diff. Prev. Bestlaptime in lap Speed
1 61 Prado, Jorge ESP RFME KTM 24:09.314 12 0:00.000 0:00.000 1:54.845 2 48.9
2 919 Watson, Ben GBR ACU Yamaha 24:15.463 12 0:06.149 0:06.149 1:56.407 3 48.2
3 96 Lawrence, Hunter AUS MA Honda 24:25.444 12 0:16.130 0:09.981 1:57.246 5 47.8
4 426 Mewse, Conrad GBR ACU KTM 24:27.968 12 0:18.654 0:02.524 1:56.904 1 48
5 193 Geerts, Jago BEL FMB Yamaha 24:34.921 12 0:25.607 0:06.953 1:57.889 3 47.6
6 29 Jacobi, Henry GER DMSB Husqvarna 24:40.584 12 0:31.270 0:05.663 1:57.691 3 47.7
7 19 Olsen, Thomas Kjer DEN DMU Husqvarna 24:51.769 12 0:42.455 0:11.185 1:58.097 3 47.5
8 70 Fernandez, Ruben ESP RFME Kawasaki 24:53.436 12 0:44.122 0:01.667 1:59.405 4 47
9 161 Östlund, Alvin SWE SVEMO Yamaha 24:55.593 12 0:46.279 0:02.157 1:59.623 5 46.9
10 10 Vlaanderen, Calvin RSA KNMV Honda 24:57.148 12 0:47.834 0:01.555 1:58.443 5 47.4
11 46 Pootjes, Davy NED KNMV KTM 24:59.176 12 0:49.862 0:02.028 1:58.726 4 47.3
12 1 Jonass, Pauls LAT LAMSF KTM 25:05.679 12 0:56.365 0:06.503 1:59.696 6 46.9
13 101 Pichon, Zachary FRA FFM KTM 25:09.138 12 0:59.824 0:03.459 1:59.605 2 46.9
14 64 Covington, Thomas USA MUL Husqvarna 25:09.640 12 1:00.326 0:00.502 1:57.735 3 47.7
15 747 Cervellin, Michele ITA FMI Honda 25:11.719 12 1:02.405 0:02.079 1:59.622 5 46.9
16 95 Furlotti, Simone ITA FMI Yamaha 25:13.086 12 1:03.772 0:01.367 1:59.574 1 46.9
17 321 Bernardini, Samuele ITA FMI TM 25:13.341 12 1:04.027 0:00.255 1:58.993 3 47.1
18 44 Lesiardo, Morgan ITA FMI KTM 25:14.760 12 1:05.446 0:01.419 2:00.514 5 46.6
19 56 Weltin, Marshal USA AMA Honda 25:15.690 12 1:06.376 0:00.930 2:00.455 7 46.6
20 118 Rubini, Stephen FRA FFM KTM 25:19.939 12 1:10.625 0:04.249 1:59.566 5 46.9
  • jannp, Andreis (PN)

    Tony, non lasciarlo scappareee!!!!
  • walter.sciutto, Nizza Monferrato (AT)

    Mi sembra quasi impossibile che Herlings abbia realizzato un bestlaptime 4 secondi inferiore al secondo miglior tempo di gara (Cairoli). Ok che aveva pista libera e nessuno che tirava su sabbia davanti ma onestamente, visto anche il ritmo (e relativa rimonta) di Tony, faccio fatica a credere. Forza TC222.
Inserisci il tuo commento